Time;durP1;ratioP1;P1;durP2;ratioP2;P2;SDS_P1;SDS_P2;PMS_P1;PMS_P2;Temp;Humidity;BMP_temperature;BMP_pressure;BME280_temperature;BME280_humidity;BME280_pressure;Samples;Min_cycle;Max_cycle;Signal;HPM_P1;HPM_P2
2021/07/14 00:00:12;;;;;;;10.48;7.72;;;;;;;21.22;78.35;100596.50;5040920;28;20422;-73
2021/07/14 00:02:37;;;;;;;9.88;7.75;;;;;;;21.36;77.48;100601.78;5056894;28;20032;-73
2021/07/14 00:05:12;;;;;;;9.98;8.45;;;;;;;21.24;78.61;100594.59;5040908;28;20035;-73
2021/07/14 00:07:37;;;;;;;9.55;8.85;;;;;;;21.08;78.82;100576.97;5075397;28;20028;-73
2021/07/14 00:10:08;;;;;;;9.48;8.70;;;;;;;21.01;79.31;100575.66;5057276;28;20541;-73
2021/07/14 00:12:42;;;;;;;9.93;8.57;;;;;;;21.09;79.47;100572.50;5056667;28;20418;-73
2021/07/14 00:17:12;;;;;;;10.02;9.23;;;;;;;20.96;79.32;100571.59;5049048;28;20024;-73
2021/07/14 00:23:12;;;;;;;9.27;8.55;;;;;;;21.33;78.15;100574.59;5059106;28;20047;-73
2021/07/14 00:25:37;;;;;;;9.50;8.90;;;;;;;21.23;78.49;100576.97;5040301;28;20410;-73
2021/07/14 00:28:03;;;;;;;8.10;7.50;;;;;;;21.28;78.22;100580.16;5040189;28;20034;-73
2021/07/14 00:30:30;;;;;;;9.35;8.55;;;;;;;21.00;79.68;100576.59;5056985;28;20020;-73
2021/07/14 00:32:55;;;;;;;9.65;8.82;;;;;;;20.97;79.86;100565.31;5056456;28;20020;-73
2021/07/14 00:35:21;;;;;;;9.05;8.30;;;;;;;21.00;79.64;100555.34;5040128;28;20403;-73
2021/07/14 00:37:46;;;;;;;9.63;8.45;;;;;;;21.04;79.93;100556.88;5040173;28;20103;-73
2021/07/14 00:40:12;;;;;;;9.13;8.43;;;;;;;21.09;80.05;100549.47;5057593;28;20028;-74
2021/07/14 00:42:38;;;;;;;10.02;8.98;;;;;;;21.11;79.86;100552.88;5074334;28;20024;-72
2021/07/14 00:45:05;;;;;;;12.68;9.07;;;;;;;20.85;80.49;100540.38;5040005;28;20024;-72
2021/07/14 00:47:33;;;;;;;8.57;7.88;;;;;;;21.01;80.63;100538.47;5039535;28;20075;-73
2021/07/14 00:50:00;;;;;;;10.27;9.43;;;;;;;20.96;80.36;100545.03;5074718;28;20377;-73
2021/07/14 00:52:25;;;;;;;9.93;9.05;;;;;;;21.16;79.31;100538.44;5072507;28;20020;-73
2021/07/14 00:54:51;;;;;;;10.10;9.27;;;;;;;21.30;78.79;100534.91;5071884;28;20167;-73
2021/07/14 00:57:19;;;;;;;9.63;8.80;;;;;;;21.32;79.12;100538.34;5055843;28;20066;-73
2021/07/14 00:59:44;;;;;;;14.68;10.50;;;;;;;21.24;79.05;100531.72;5056712;28;20127;-73
2021/07/14 01:02:11;;;;;;;10.98;9.98;;;;;;;21.15;79.64;100528.81;5055647;28;20032;-73
2021/07/14 01:04:40;;;;;;;11.73;10.40;;;;;;;21.24;79.36;100526.41;5056415;28;20324;-73
2021/07/14 01:07:14;;;;;;;11.40;10.30;;;;;;;21.36;78.68;100522.09;5039151;28;20032;-73
2021/07/14 01:09:54;;;;;;;11.07;10.00;;;;;;;21.32;78.36;100523.25;5056286;28;20433;-73
2021/07/14 01:12:37;;;;;;;11.48;10.27;;;;;;;21.01;80.26;100519.03;5055549;28;20028;-73
2021/07/14 01:15:08;;;;;;;15.27;9.68;;;;;;;21.12;79.86;100519.22;5056299;28;20119;-73
2021/07/14 01:17:37;;;;;;;10.23;9.32;;;;;;;21.06;80.10;100527.56;5073526;28;20043;-73
2021/07/14 01:20:24;;;;;;;10.52;9.30;;;;;;;21.29;78.39;100526.09;5056172;28;20108;-73
2021/07/14 01:23:07;;;;;;;10.65;9.52;;;;;;;21.03;79.27;100523.28;5072398;28;20024;-73
2021/07/14 01:25:52;;;;;;;10.40;9.52;;;;;;;21.02;79.69;100521.59;5072722;28;20032;-73
2021/07/14 01:28:18;;;;;;;9.52;8.70;;;;;;;21.08;79.04;100528.34;5055674;28;20087;-73
2021/07/14 01:30:44;;;;;;;8.32;7.50;;;;;;;21.14;78.84;100529.75;5072596;28;20028;-72
2021/07/14 01:33:11;;;;;;;8.07;7.55;;;;;;;21.32;77.80;100528.56;5055104;28;20032;-72
2021/07/14 01:35:40;;;;;;;8.70;8.00;;;;;;;21.42;77.71;100535.00;5055897;28;20028;-72
2021/07/14 01:38:06;;;;;;;8.52;7.93;;;;;;;21.28;77.95;100537.66;5038977;28;20462;-72
2021/07/14 01:40:32;;;;;;;8.98;8.07;;;;;;;21.22;78.21;100538.91;5055747;28;20060;-73
2021/07/14 01:42:59;;;;;;;9.20;7.95;;;;;;;21.41;77.80;100545.72;5055254;28;20031;-73
2021/07/14 01:45:29;;;;;;;8.23;7.53;;;;;;;21.40;78.09;100542.19;5039186;28;20118;-72
2021/07/14 01:47:54;;;;;;;9.32;8.63;;;;;;;20.99;79.53;100527.09;5037379;28;20032;-73
2021/07/14 01:50:22;;;;;;;8.70;8.10;;;;;;;21.05;79.69;100518.75;5039003;28;20115;-72
2021/07/14 01:52:48;;;;;;;8.80;8.20;;;;;;;21.10;78.95;100519.31;5054888;28;20029;-72
2021/07/14 01:55:13;;;;;;;8.43;7.78;;;;;;;21.21;78.26;100523.94;5037267;28;20311;-72
2021/07/14 01:57:39;;;;;;;9.05;8.30;;;;;;;21.08;78.72;100515.91;5038837;28;20028;-73
2021/07/14 02:00:09;;;;;;;8.60;7.78;;;;;;;21.04;79.30;100509.06;5059657;28;20055;-73
2021/07/14 02:05:30;;;;;;;8.65;8.05;;;;;;;20.98;79.42;100505.94;5034685;28;20109;-72
2021/07/14 02:07:59;;;;;;;8.52;7.82;;;;;;;20.85;80.00;100500.56;5042813;28;20028;-72
2021/07/14 02:10:25;;;;;;;13.25;8.38;;;;;;;20.77;80.75;100501.88;5042907;28;20382;-73
2021/07/14 02:12:51;;;;;;;8.95;8.23;;;;;;;20.72;80.72;100506.66;5076704;28;20064;-72
2021/07/14 02:15:16;;;;;;;8.68;8.07;;;;;;;20.77;80.74;100496.56;5059138;28;20044;-72
2021/07/14 02:17:48;;;;;;;12.43;8.50;;;;;;;20.92;79.80;100504.53;5059492;28;20025;-73
2021/07/14 02:20:18;;;;;;;9.20;8.38;;;;;;;21.01;79.21;100508.41;5059278;28;20507;-72
2021/07/14 02:22:45;;;;;;;9.98;9.07;;;;;;;20.68;80.82;100507.78;5058667;28;20060;-73
2021/07/14 02:25:11;;;;;;;10.02;9.13;;;;;;;20.71;81.05;100502.28;5042418;28;20430;-73
2021/07/14 02:27:38;;;;;;;9.20;8.30;;;;;;;20.88;79.91;100503.03;5059154;28;20028;-72
2021/07/14 02:30:19;;;;;;;10.73;9.00;;;;;;;20.76;80.63;100510.81;5059172;28;20115;-73
2021/07/14 02:33:05;;;;;;;9.57;8.80;;;;;;;20.67;81.04;100508.69;5060077;28;20096;-73
2021/07/14 02:35:34;;;;;;;9.43;8.45;;;;;;;20.88;80.40;100498.56;5058226;28;20024;-73
2021/07/14 02:38:20;;;;;;;9.57;8.63;;;;;;;20.92;79.84;100497.41;5058290;28;20023;-72
2021/07/14 02:40:50;;;;;;;9.88;8.23;;;;;;;20.93;79.82;100499.13;5072187;28;20021;-72
2021/07/14 02:43:16;;;;;;;10.35;9.18;;;;;;;20.70;80.90;100497.91;5025347;28;20170;-73
2021/07/14 02:45:44;;;;;;;9.98;9.15;;;;;;;20.57;80.83;100488.97;5041871;28;20024;-72
2021/07/14 02:48:10;;;;;;;10.20;9.40;;;;;;;20.67;80.77;100481.28;5075411;28;20369;-73
2021/07/14 02:50:36;;;;;;;10.50;9.50;;;;;;;20.82;79.67;100485.69;5041845;28;20103;-72
2021/07/14 02:53:10;;;;;;;9.52;8.80;;;;;;;20.82;80.32;100477.72;5041062;28;20115;-72
2021/07/14 02:55:37;;;;;;;9.30;8.70;;;;;;;20.75;80.60;100477.25;5040770;28;20472;-72
2021/07/14 02:58:03;;;;;;;9.43;8.70;;;;;;;20.87;80.01;100470.31;5058692;28;20410;-72
2021/07/14 03:00:29;;;;;;;9.85;8.95;;;;;;;20.85;79.90;100471.38;5058154;28;20067;-73
2021/07/14 03:02:55;;;;;;;9.00;8.38;;;;;;;20.79;80.19;100466.44;5057993;28;20028;-73
2021/07/14 03:05:20;;;;;;;9.43;8.52;;;;;;;20.90;79.27;100461.28;5058172;28;20086;-73
2021/07/14 03:07:48;;;;;;;10.15;9.10;;;;;;;20.82;79.28;100468.88;5058186;28;20036;-73
2021/07/14 03:10:18;;;;;;;8.93;8.32;;;;;;;20.75;79.76;100466.63;5041476;28;20329;-72
2021/07/14 03:12:46;;;;;;;8.90;8.30;;;;;;;20.84;78.93;100461.69;5057986;28;20026;-73
2021/07/14 03:15:12;;;;;;;9.23;8.50;;;;;;;20.81;79.24;100464.56;5058427;28;20040;-73
2021/07/14 03:17:39;;;;;;;8.82;8.02;;;;;;;20.84;78.89;100469.66;5058253;28;20270;-73
2021/07/14 03:20:08;;;;;;;8.80;8.20;;;;;;;20.84;78.94;100461.69;5057989;28;20032;-73
2021/07/14 03:22:35;;;;;;;8.75;8.02;;;;;;;20.91;78.76;100463.00;5057230;28;20028;-72
2021/07/14 03:25:02;;;;;;;8.70;8.02;;;;;;;20.90;78.81;100462.16;5057802;28;20102;-72
2021/07/14 03:27:27;;;;;;;8.60;8.00;;;;;;;20.83;79.31;100463.47;5057791;28;20024;-72
2021/07/14 03:29:53;;;;;;;8.30;7.80;;;;;;;20.92;78.90;100478.00;5041110;28;20374;-73
2021/07/14 03:32:19;;;;;;;8.85;8.05;;;;;;;20.79;79.47;100479.72;5074027;28;20024;-73
2021/07/14 03:34:45;;;;;;;9.88;8.90;;;;;;;20.58;80.49;100483.56;5057796;28;20028;-73
2021/07/14 03:37:10;;;;;;;8.00;7.50;;;;;;;20.74;80.06;100486.16;5057476;28;20142;-73
2021/07/14 03:39:38;;;;;;;8.95;8.23;;;;;;;20.55;80.86;100490.88;5057621;28;20024;-72
2021/07/14 03:42:05;;;;;;;9.43;8.52;;;;;;;20.77;79.79;100491.25;5057298;28;20619;-73
2021/07/14 03:44:32;;;;;;;9.02;8.05;;;;;;;20.77;79.84;100495.72;5057512;28;20438;-73
2021/07/14 03:46:58;;;;;;;9.43;8.38;;;;;;;20.76;80.00;100510.81;5057549;28;20447;-73
2021/07/14 03:49:24;;;;;;;8.70;8.00;;;;;;;20.73;79.70;100515.44;5057353;28;20108;-72
2021/07/14 03:51:50;;;;;;;8.45;7.78;;;;;;;20.93;78.57;100527.50;5040256;28;20414;-72
2021/07/14 03:54:15;;;;;;;9.15;8.55;;;;;;;20.99;77.71;100535.06;5057520;28;20040;-72
2021/07/14 03:56:41;;;;;;;9.88;8.98;;;;;;;20.75;78.89;100533.00;5057350;28;20047;-72
2021/07/14 03:59:07;;;;;;;8.63;8.00;;;;;;;20.85;78.40;100530.59;5049183;28;20040;-72
2021/07/14 04:01:32;;;;;;;9.02;8.23;;;;;;;20.87;78.13;100527.84;5053367;28;20323;-73
2021/07/14 04:03:58;;;;;;;8.88;8.18;;;;;;;20.83;78.33;100531.66;5055448;28;20025;-73
2021/07/14 04:06:24;;;;;;;11.60;7.95;;;;;;;20.79;78.51;100535.44;5057200;28;20028;-73
2021/07/14 04:09:25;;;;;;;9.20;7.90;;;;;;;20.89;77.92;100531.28;5074030;28;20025;-72
2021/07/14 04:11:58;;;;;;;9.00;8.10;;;;;;;20.99;77.43;100527.09;5056667;28;20020;-72
2021/07/14 04:14:26;;;;;;;9.25;8.52;;;;;;;20.83;77.81;100536.97;5057006;28;20021;-72
2021/07/14 04:16:52;;;;;;;10.00;9.10;;;;;;;20.61;78.84;100538.25;5056961;28;20078;-72
2021/07/14 04:19:18;;;;;;;12.75;9.45;;;;;;;20.46;80.22;100537.38;5040345;28;20402;-72
2021/07/14 04:21:43;;;;;;;9.82;8.90;;;;;;;20.64;78.88;100538.03;5072283;28;20032;-72
2021/07/14 04:24:09;;;;;;;11.77;10.18;;;;;;;20.33;80.43;100537.25;5056807;28;20032;-73
2021/07/14 04:26:35;;;;;;;10.25;9.27;;;;;;;20.46;80.24;100544.47;5057491;28;20021;-73
2021/07/14 04:29:00;;;;;;;12.95;9.18;;;;;;;20.61;79.64;100546.19;5057149;28;20043;-73
2021/07/14 04:31:25;;;;;;;10.43;9.52;;;;;;;20.75;79.02;100556.00;5056768;28;20032;-73
2021/07/14 04:33:51;;;;;;;11.10;9.90;;;;;;;20.57;79.40;100555.28;5074586;28;20389;-73
2021/07/14 04:36:16;;;;;;;9.65;8.60;;;;;;;20.67;79.05;100560.88;5057111;28;20434;-73
2021/07/14 04:38:41;;;;;;;9.93;9.02;;;;;;;20.57;79.58;100552.63;5057071;28;20020;-73
2021/07/14 04:41:07;;;;;;;9.65;8.85;;;;;;;20.60;79.39;100555.09;5039818;28;20033;-73
2021/07/14 04:43:32;;;;;;;14.18;9.77;;;;;;;20.63;79.18;100554.94;5056401;28;20418;-73
2021/07/14 04:45:58;;;;;;;13.68;9.73;;;;;;;20.34;80.75;100546.94;5074453;28;20372;-73
2021/07/14 04:48:26;;;;;;;13.02;8.93;;;;;;;20.51;80.12;100551.22;5039770;28;20024;-73
2021/07/14 04:50:52;;;;;;;10.00;9.20;;;;;;;20.66;79.81;100544.13;5056718;28;20032;-72
2021/07/14 04:53:17;;;;;;;10.40;9.48;;;;;;;20.65;79.68;100538.91;5056204;28;20104;-73
2021/07/14 04:55:42;;;;;;;10.40;9.50;;;;;;;20.73;79.48;100534.88;5056567;28;20185;-74
2021/07/14 04:58:08;;;;;;;11.27;10.25;;;;;;;20.38;81.55;100540.50;5056598;28;20074;-75
2021/07/14 05:00:33;;;;;;;10.45;9.38;;;;;;;20.61;80.51;100551.50;5039653;28;20048;-74
2021/07/14 05:02:58;;;;;;;10.27;9.45;;;;;;;20.70;80.11;100555.44;5072308;28;20383;-73
2021/07/14 05:05:24;;;;;;;10.48;9.55;;;;;;;20.66;80.30;100552.09;5073902;28;20036;-73
2021/07/14 05:07:50;;;;;;;16.58;11.73;;;;;;;20.16;82.47;100542.72;5055879;28;20433;-73
2021/07/14 05:10:16;;;;;;;11.25;10.18;;;;;;;20.15;82.76;100536.56;5073968;28;20146;-73
2021/07/14 05:12:42;;;;;;;11.48;10.23;;;;;;;20.38;81.94;100537.84;5054118;28;20490;-73
2021/07/14 05:15:07;;;;;;;12.75;10.05;;;;;;;20.50;81.75;100535.41;5056123;28;20024;-73
2021/07/14 05:17:33;;;;;;;10.95;9.98;;;;;;;20.38;82.85;100537.84;5072392;28;20465;-73
2021/07/14 05:19:59;;;;;;;10.50;9.50;;;;;;;20.59;81.94;100542.81;5056093;28;20065;-73
2021/07/14 05:22:24;;;;;;;11.43;10.23;;;;;;;20.53;82.31;100551.13;5038830;28;20070;-73
2021/07/14 05:24:49;;;;;;;15.80;11.38;;;;;;;20.64;82.65;100543.34;5055529;28;20028;-74
2021/07/14 05:27:15;;;;;;;10.77;9.88;;;;;;;20.38;83.56;100543.16;5055709;28;20099;-74
2021/07/14 05:29:40;;;;;;;13.85;10.57;;;;;;;20.48;82.59;100531.97;5055743;28;20103;-74
2021/07/14 05:32:06;;;;;;;11.95;10.77;;;;;;;20.57;82.30;100531.41;5054546;28;20442;-73
2021/07/14 05:34:31;;;;;;;11.80;10.57;;;;;;;20.65;82.39;100531.81;5055340;28;20146;-73
2021/07/14 05:36:57;;;;;;;10.98;10.00;;;;;;;20.74;82.02;100531.28;5055713;28;20315;-73
2021/07/14 05:39:22;;;;;;;11.45;10.35;;;;;;;20.71;81.77;100536.78;5055351;28;20012;-73
2021/07/14 05:41:47;;;;;;;12.90;10.50;;;;;;;20.56;82.85;100538.53;5055324;28;20020;-73
2021/07/14 05:44:13;;;;;;;11.13;9.95;;;;;;;20.65;82.53;100539.75;5073280;28;20333;-73
2021/07/14 05:46:38;;;;;;;11.52;10.32;;;;;;;20.57;83.10;100536.72;5055647;28;20074;-73
2021/07/14 05:49:03;;;;;;;11.30;10.27;;;;;;;20.56;83.57;100535.88;5055502;28;20017;-73
2021/07/14 05:51:33;;;;;;;13.00;11.70;;;;;;;20.75;83.18;100554.22;5072904;28;20059;-73
2021/07/14 05:54:01;;;;;;;11.10;9.77;;;;;;;20.79;82.52;100543.41;5038841;28;20059;-73
2021/07/14 05:56:27;;;;;;;12.07;10.02;;;;;;;20.58;83.20;100530.47;5038967;28;20064;-73
2021/07/14 05:58:53;;;;;;;11.18;9.15;;;;;;;20.35;84.49;100540.66;5054955;28;20118;-73
2021/07/14 06:01:19;;;;;;;10.95;10.05;;;;;;;20.42;84.01;100539.38;5054306;28;20020;-73
2021/07/14 06:03:44;;;;;;;11.85;10.75;;;;;;;20.41;84.18;100540.31;5071338;28;20441;-73
2021/07/14 06:06:10;;;;;;;10.82;9.93;;;;;;;20.29;85.01;100541.03;5054269;28;20028;-72
2021/07/14 06:08:36;;;;;;;16.05;11.38;;;;;;;19.87;87.85;100534.66;5073068;28;20155;-73
2021/07/14 06:11:01;;;;;;;12.02;10.93;;;;;;;19.99;87.44;100533.06;5071894;28;20115;-72
2021/07/14 06:13:26;;;;;;;13.18;11.55;;;;;;;20.23;85.56;100531.66;5073116;28;20025;-73
2021/07/14 06:15:52;;;;;;;12.63;11.35;;;;;;;19.92;87.96;100529.97;5055093;28;20114;-73
2021/07/14 06:18:17;;;;;;;14.73;12.30;;;;;;;20.13;86.71;100534.94;5073259;28;20314;-74
2021/07/14 06:20:43;;;;;;;13.02;11.30;;;;;;;20.19;86.75;100542.53;5055358;28;20335;-73
2021/07/14 06:23:08;;;;;;;13.50;12.35;;;;;;;19.86;88.14;100538.25;5055131;28;20059;-73
2021/07/14 06:25:34;;;;;;;17.95;14.52;;;;;;;19.76;88.25;100535.25;5054815;28;20358;-74
2021/07/14 06:28:02;;;;;;;15.18;13.68;;;;;;;19.82;88.15;100536.72;5038575;28;20021;-73
2021/07/14 06:30:27;;;;;;;15.35;13.68;;;;;;;20.09;87.57;100536.91;5055458;28;20418;-73
2021/07/14 06:32:52;;;;;;;27.98;15.30;;;;;;;19.73;88.79;100525.66;5072463;28;20028;-73
2021/07/14 06:35:18;;;;;;;19.17;14.77;;;;;;;19.80;89.71;100520.91;5071888;28;20025;-73
2021/07/14 06:37:45;;;;;;;17.90;14.85;;;;;;;19.58;90.26;100514.16;5071816;28;20027;-73
2021/07/14 06:40:10;;;;;;;19.02;14.52;;;;;;;19.59;90.69;100509.69;5071811;28;20026;-73
2021/07/14 06:42:37;;;;;;;16.13;13.75;;;;;;;19.73;90.13;100493.88;5071150;28;20339;-73
2021/07/14 06:45:04;;;;;;;17.58;15.27;;;;;;;19.82;89.87;100494.31;5056975;28;20428;-73
2021/07/14 06:47:29;;;;;;;17.80;15.52;;;;;;;19.86;90.03;100479.94;5058292;28;20020;-73
2021/07/14 06:49:55;;;;;;;18.35;16.30;;;;;;;19.83;89.99;100477.47;5075433;28;20444;-73
2021/07/14 06:52:21;;;;;;;20.40;16.20;;;;;;;19.76;89.96;100461.88;5057478;28;20025;-73
2021/07/14 06:54:46;;;;;;;17.85;16.17;;;;;;;19.82;90.53;100459.88;5074743;28;20025;-73
2021/07/14 06:57:11;;;;;;;20.52;16.85;;;;;;;19.71;90.41;100466.59;5058292;28;20031;-73
2021/07/14 06:59:39;;;;;;;17.23;15.30;;;;;;;19.83;90.64;100458.94;5076469;28;20097;-72
2021/07/14 07:02:04;;;;;;;20.55;15.65;;;;;;;19.84;90.76;100458.84;5075283;28;20020;-72
2021/07/14 07:04:33;;;;;;;18.52;16.13;;;;;;;19.76;91.20;100450.44;5076222;28;20334;-73
2021/07/14 07:06:59;;;;;;;21.73;16.75;;;;;;;19.74;91.61;100455.84;5056383;28;20032;-73
2021/07/14 07:09:25;;;;;;;19.38;17.42;;;;;;;19.71;92.07;100453.34;5050201;28;20021;-72
2021/07/14 07:11:50;;;;;;;20.95;15.93;;;;;;;19.72;91.73;100449.75;5048496;28;20059;-72
2021/07/14 07:14:15;;;;;;;21.50;17.42;;;;;;;19.72;91.51;100449.75;5058177;28;20442;-72
2021/07/14 07:16:41;;;;;;;20.13;15.93;;;;;;;19.66;91.63;100450.13;5057244;28;20021;-72
2021/07/14 07:19:06;;;;;;;21.92;16.55;;;;;;;19.77;91.48;100455.66;5074803;28;20107;-73
2021/07/14 07:21:32;;;;;;;22.38;17.13;;;;;;;19.84;91.66;100458.00;5073803;28;20033;-73
2021/07/14 07:23:58;;;;;;;19.83;16.85;;;;;;;19.83;91.56;100448.31;5068900;28;20021;-73
2021/07/14 07:26:23;;;;;;;19.83;17.63;;;;;;;19.92;91.58;100447.78;5036501;28;20079;-73
2021/07/14 07:28:51;;;;;;;20.38;18.33;;;;;;;19.98;90.93;100455.34;5057670;28;20418;-73
2021/07/14 07:31:16;;;;;;;23.05;18.63;;;;;;;19.92;91.08;100458.38;5055000;28;20426;-73
2021/07/14 07:33:42;;;;;;;21.83;19.58;;;;;;;19.91;91.56;100456.69;5073576;28;20341;-74
2021/07/14 07:36:07;;;;;;;27.80;19.92;;;;;;;20.02;91.03;100448.09;5052155;28;20028;-74
2021/07/14 07:38:36;;;;;;;20.30;18.17;;;;;;;20.07;90.58;100454.81;5053950;28;20074;-73
2021/07/14 07:41:01;;;;;;;18.70;16.83;;;;;;;19.94;90.64;100448.53;5048967;28;20320;-73
2021/07/14 07:43:28;;;;;;;18.63;16.48;;;;;;;20.01;90.31;100449.03;5062064;28;20023;-74
2021/07/14 07:45:54;;;;;;;25.48;17.42;;;;;;;19.89;91.09;100453.25;5049447;28;20020;-73
2021/07/14 07:48:20;;;;;;;23.58;17.15;;;;;;;19.84;91.52;100450.88;5066638;28;20024;-74
2021/07/14 07:50:48;;;;;;;18.75;16.85;;;;;;;19.92;90.89;100455.75;5069602;28;20016;-74
2021/07/14 07:53:14;;;;;;;20.50;18.55;;;;;;;20.01;90.64;100452.50;5051536;28;20291;-74
2021/07/14 07:55:39;;;;;;;18.80;16.30;;;;;;;20.12;90.24;100456.34;5054946;28;20025;-74
2021/07/14 07:58:04;;;;;;;21.65;17.25;;;;;;;20.09;90.79;100458.22;5053588;28;20029;-74
2021/07/14 08:00:30;;;;;;;23.58;18.42;;;;;;;20.19;91.03;100455.00;5040912;28;20021;-72
2021/07/14 08:02:56;;;;;;;18.10;15.45;;;;;;;20.18;91.46;100454.16;5073509;28;20020;-73
2021/07/14 08:05:21;;;;;;;16.85;14.85;;;;;;;20.44;90.05;100463.19;5029955;28;20083;-72
2021/07/14 08:07:46;;;;;;;16.48;14.73;;;;;;;20.81;87.56;100464.56;5058630;28;20024;-73
2021/07/14 08:10:12;;;;;;;16.48;14.98;;;;;;;21.06;87.36;100462.03;5058758;28;20024;-73
2021/07/14 08:12:38;;;;;;;15.32;13.82;;;;;;;21.45;85.04;100460.41;5073143;28;20020;-73
2021/07/14 08:15:05;;;;;;;17.17;15.07;;;;;;;21.23;86.30;100455.63;5059838;28;20036;-73
2021/07/14 08:17:30;;;;;;;20.02;16.33;;;;;;;21.08;85.14;100462.78;5073744;28;20047;-72
2021/07/14 08:19:55;;;;;;;18.80;15.93;;;;;;;21.30;85.23;100469.38;5067617;28;20020;-72
2021/07/14 08:22:21;;;;;;;17.10;15.40;;;;;;;21.45;83.83;100464.88;5044081;28;20107;-72
2021/07/14 08:24:46;;;;;;;16.05;14.45;;;;;;;21.67;82.84;100469.63;5049923;28;20282;-72
2021/07/14 08:27:11;;;;;;;19.65;15.13;;;;;;;21.37;83.92;100467.19;5071854;28;20471;-72
2021/07/14 08:29:37;;;;;;;17.00;15.20;;;;;;;21.20;85.85;100471.78;5027814;28;20025;-72
2021/07/14 08:32:03;;;;;;;18.98;16.70;;;;;;;21.44;84.98;100479.09;5047540;28;20036;-72
2021/07/14 08:34:28;;;;;;;17.77;15.40;;;;;;;22.01;83.48;100467.38;5074301;28;20357;-72
2021/07/14 08:36:53;;;;;;;16.13;14.63;;;;;;;22.64;79.23;100477.31;5042918;28;20028;-72
2021/07/14 08:39:19;;;;;;;15.85;14.25;;;;;;;21.91;81.75;100477.78;5056952;28;20024;-73
2021/07/14 08:41:44;;;;;;;16.77;14.57;;;;;;;22.00;81.44;100480.78;5063755;28;20024;-73
2021/07/14 08:44:13;;;;;;;17.15;14.70;;;;;;;21.58;83.27;100491.50;5074586;28;20422;-73
2021/07/14 08:46:39;;;;;;;16.02;14.52;;;;;;;22.38;79.90;100488.81;5056889;28;20035;-73
2021/07/14 08:49:06;;;;;;;17.95;14.40;;;;;;;22.61;79.15;100481.91;5053010;28;20330;-73
2021/07/14 08:51:36;;;;;;;15.75;13.25;;;;;;;22.25;79.70;100474.63;5056663;28;20048;-73
2021/07/14 08:54:03;;;;;;;14.32;12.95;;;;;;;22.86;77.68;100484.63;5072997;28;20055;-73
2021/07/14 08:56:29;;;;;;;15.13;13.57;;;;;;;22.45;78.71;100486.59;5056251;28;20012;-73
2021/07/14 08:58:54;;;;;;;16.02;14.30;;;;;;;21.89;81.95;100490.31;5039486;28;20016;-73
2021/07/14 09:01:19;;;;;;;14.85;13.60;;;;;;;22.04;80.92;100484.94;5037588;28;20044;-73
2021/07/14 09:03:45;;;;;;;16.38;14.32;;;;;;;21.59;83.52;100483.44;5063078;28;20016;-73
2021/07/14 09:06:10;;;;;;;14.93;13.63;;;;;;;22.09;83.71;100486.31;5056138;28;20395;-73
2021/07/14 09:08:37;;;;;;;16.10;14.43;;;;;;;22.53;78.83;100484.25;5038013;28;20082;-73
2021/07/14 09:11:03;;;;;;;16.08;14.48;;;;;;;22.37;80.26;100484.44;5072638;28;20059;-73
2021/07/14 09:13:40;;;;;;;15.30;13.77;;;;;;;22.78;78.18;100483.38;5074382;28;20020;-73
2021/07/14 09:16:05;;;;;;;14.95;13.50;;;;;;;22.85;78.67;100496.25;5056286;28;20021;-73
2021/07/14 09:18:31;;;;;;;16.73;14.68;;;;;;;23.00;79.16;100496.97;5045108;28;20033;-72
2021/07/14 09:20:58;;;;;;;14.73;12.98;;;;;;;23.25;76.57;100491.59;5025405;28;20039;-72
2021/07/14 09:23:27;;;;;;;14.95;13.57;;;;;;;23.36;75.11;100492.63;5051589;28;20021;-73
2021/07/14 09:25:55;;;;;;;16.67;14.18;;;;;;;23.08;76.27;100489.25;5045665;28;20107;-72
2021/07/14 09:28:23;;;;;;;18.85;14.43;;;;;;;23.28;76.41;100474.53;5068352;28;20033;-73
2021/07/14 09:31:00;;;;;;;14.35;13.00;;;;;;;22.91;79.48;100479.84;5052169;28;20446;-73
2021/07/14 09:33:26;;;;;;;16.40;14.05;;;;;;;22.51;78.54;100485.31;5069873;28;20338;-73
2021/07/14 09:35:53;;;;;;;15.10;12.20;;;;;;;22.35;80.07;100470.41;5069782;28;20032;-73
2021/07/14 09:38:24;;;;;;;13.52;12.35;;;;;;;22.82;79.09;100468.00;5053144;28;20023;-73
2021/07/14 09:40:52;;;;;;;15.55;14.20;;;;;;;22.34;80.84;100471.38;5051280;28;20025;-73
2021/07/14 09:43:19;;;;;;;14.45;13.00;;;;;;;22.04;82.92;100466.31;5051564;28;20446;-73
2021/07/14 09:45:52;;;;;;;14.05;12.23;;;;;;;22.68;81.34;100460.19;5068142;28;20052;-73
2021/07/14 09:48:18;;;;;;;13.30;12.00;;;;;;;22.85;77.83;100461.63;5067842;28;20044;-73
2021/07/14 09:50:51;;;;;;;16.15;12.85;;;;;;;22.86;77.60;100452.69;5053413;28;20020;-72
2021/07/14 09:53:20;;;;;;;13.18;11.98;;;;;;;22.66;79.38;100452.31;5053871;28;20022;-73
2021/07/14 09:55:51;;;;;;;14.10;12.90;;;;;;;22.84;78.26;100454.59;5057469;28;20059;-73
2021/07/14 09:58:25;;;;;;;14.30;13.18;;;;;;;22.55;79.82;100460.19;5057211;28;20016;-73
2021/07/14 10:00:54;;;;;;;19.92;13.85;;;;;;;22.81;79.25;100452.16;5072967;28;20155;-73
2021/07/14 10:03:28;;;;;;;16.00;14.57;;;;;;;22.43;80.38;100462.75;5056765;28;20346;-74
2021/07/14 10:06:01;;;;;;;15.23;13.93;;;;;;;22.50;80.84;100462.34;5075578;28;20030;-74
2021/07/14 10:08:26;;;;;;;13.07;11.95;;;;;;;23.56;76.87;100456.50;5047376;28;20329;-74
2021/07/14 10:11:07;;;;;;;12.73;11.40;;;;;;;24.29;74.83;100462.56;5051764;28;20024;-75
2021/07/14 10:13:32;;;;;;;14.25;11.60;;;;;;;24.19;74.68;100474.94;5064480;28;20027;-74
2021/07/14 10:16:03;;;;;;;14.32;12.95;;;;;;;23.89;75.61;100470.97;5060752;28;20040;-73
2021/07/14 10:18:28;;;;;;;15.00;13.50;;;;;;;23.62;75.20;100466.72;5038015;28;20071;-71
2021/07/14 10:20:54;;;;;;;14.77;13.07;;;;;;;23.77;76.64;100465.53;5041553;28;20362;-72
2021/07/14 10:23:21;;;;;;;10.98;9.95;;;;;;;24.94;72.79;100465.50;5058272;28;20606;-73
2021/07/14 10:25:46;;;;;;;17.27;13.75;;;;;;;24.47;72.74;100462.94;5056838;28;20484;-74
2021/07/14 10:28:14;;;;;;;21.13;12.48;;;;;;;24.61;72.75;100467.16;5056348;28;20378;-74
2021/07/14 10:30:41;;;;;;;14.25;12.85;;;;;;;24.71;72.12;100473.53;5055778;28;20354;-73
2021/07/14 10:33:11;;;;;;;14.93;13.60;;;;;;;23.86;74.01;100463.16;5057322;28;20085;-74
2021/07/14 10:35:41;;;;;;;15.38;13.82;;;;;;;23.52;77.04;100465.69;5058326;28;20020;-74
2021/07/14 10:38:17;;;;;;;12.38;11.15;;;;;;;24.57;72.73;100461.25;5075028;28;20030;-74
2021/07/14 10:40:44;;;;;;;23.85;11.00;;;;;;;24.97;70.63;100455.41;5074832;28;20068;-74
2021/07/14 10:43:10;;;;;;;14.82;12.13;;;;;;;25.20;70.14;100451.84;5074176;28;20025;-73
2021/07/14 10:45:36;;;;;;;13.88;12.45;;;;;;;25.39;69.48;100448.56;5055328;28;20038;-74
2021/07/14 10:48:01;;;;;;;12.77;11.68;;;;;;;25.14;70.23;100454.03;5063213;28;20024;-73
2021/07/14 10:50:27;;;;;;;12.68;10.15;;;;;;;26.03;67.47;100436.94;5052806;28;20060;-74
2021/07/14 10:52:52;;;;;;;12.48;11.18;;;;;;;25.45;69.86;100438.16;5056493;28;20019;-73
2021/07/14 10:55:23;;;;;;;10.60;9.55;;;;;;;25.98;65.97;100431.09;5072776;28;20037;-73
2021/07/14 10:57:51;;;;;;;9.75;9.02;;;;;;;25.90;66.64;100437.09;5054543;28;20029;-73
2021/07/14 11:00:17;;;;;;;10.05;9.25;;;;;;;25.71;67.23;100445.00;5042156;28;20016;-73
2021/07/14 11:02:48;;;;;;;8.57;7.97;;;;;;;26.79;62.28;100450.00;5057032;28;20026;-73
2021/07/14 11:05:17;;;;;;;8.63;7.95;;;;;;;26.69;61.53;100443.72;5050824;28;20024;-73
2021/07/14 11:07:45;;;;;;;8.93;8.32;;;;;;;27.21;59.73;100443.59;5074499;28;20107;-73
2021/07/14 11:10:23;;;;;;;12.68;7.85;;;;;;;26.75;60.89;100442.38;5057097;28;20039;-73
2021/07/14 11:12:48;;;;;;;9.05;8.25;;;;;;;26.36;62.61;100448.38;5074097;28;20020;-73
2021/07/14 11:15:27;;;;;;;8.75;8.00;;;;;;;26.14;63.78;100444.06;5055633;28;20097;-73
2021/07/14 11:17:52;;;;;;;9.40;8.57;;;;;;;26.28;63.26;100432.16;5037303;28;20428;-74
2021/07/14 11:20:18;;;;;;;8.60;7.82;;;;;;;26.88;62.79;100439.47;5053352;28;20028;-74
2021/07/14 11:22:45;;;;;;;9.20;8.45;;;;;;;27.14;61.10;100437.09;5071474;28;20025;-74
2021/07/14 11:25:30;;;;;;;10.63;8.93;;;;;;;27.63;61.05;100427.25;5056499;28;20426;-74